19 Feb 2019 09:10 UTC 2019050+09:10 UTC

Overview Datums Bench Marks Data Query Site Visit Daily QC Messages Attributes

043: Nueces Delta 3

27° 53' 1" N   97° 31' 59" W
NUDE3
The Coastal Bend Bays & Estuaries Program Coastal Bend Bays and Estuaries Program

Station Information

Nueces Delta 3
Nueces Delta 3
more pictures
 
Station Name:Nueces Delta 3
DNR ID:043
Location:27° 53' 1" N, 97° 31' 59" W

Water Level Forecasts

Latest Observations

Series Metric English Marine Observed at
Water Temperature 15.8 °C 60.4 °F 60.4 °F Feb 19 03:00 CST
00h07m ago
Salinity 14.200 psu 14.200 psu 14.200 psu Feb 19 03:00 CST
00h07m ago

Maps

Nueces Delta 3
All Stations in Area
Entire Network
 

Recent Observations

Date/Time Water
Temp (°F)
Sal (psu)
Feb 19 03:00 CST 60.4 14.200
Feb 19 02:00 CST 60.8 14.000
Feb 19 01:00 CST 61.2 14.400
Feb 19 00:00 CST 61.5 13.400
Feb 18 23:00 CST 61.5 9.600
Feb 18 22:00 CST 61.7 14.400
Feb 18 21:00 CST 61.7 14.200
Feb 18 20:00 CST 62.2 14.500
Feb 18 19:00 CST 63.1 14.700
Feb 18 18:00 CST 62.4 14.300
Feb 18 17:00 CST 61.7 13.800
Feb 18 16:00 CST 63.1 13.700
Feb 18 15:00 CST 63.1 15.000
Feb 18 14:00 CST 61.7 14.700
Feb 18 13:00 CST 59.2 15.000
Feb 18 12:00 CST 59.7 14.700
Feb 18 11:00 CST 60.1 14.400
Feb 18 10:00 CST 59.5 14.800
Feb 18 09:00 CST 59.7 14.800
Feb 18 08:00 CST 60.1 14.600
Feb 18 07:00 CST 60.6 14.600
Feb 18 06:00 CST 61.2 14.800
Feb 18 05:00 CST 61.5 14.700
Feb 18 04:00 CST 62.4 14.600
Feb 18 03:00 CST 62.4 14.800

Historical Data Availability